sensor_id;sensor_type;location;lat;lon;timestamp;pressure;altitude;pressure_sealevel;temperature;humidity
23589;BME280;11972;48.078;11.876;2022-10-16T00:00:31;95473.78;;;11.18;100.00
23589;BME280;11972;48.078;11.876;2022-10-16T00:04:31;95490.66;;;11.17;100.00
23589;BME280;11972;48.078;11.876;2022-10-16T00:08:33;95497.13;;;11.14;100.00
23589;BME280;11972;48.078;11.876;2022-10-16T00:12:33;95492.22;;;11.11;100.00
23589;BME280;11972;48.078;11.876;2022-10-16T00:16:34;95486.09;;;11.11;100.00
23589;BME280;11972;48.078;11.876;2022-10-16T00:20:34;95481.22;;;11.08;100.00
23589;BME280;11972;48.078;11.876;2022-10-16T00:24:36;95486.03;;;11.04;100.00
23589;BME280;11972;48.078;11.876;2022-10-16T00:28:37;95494.53;;;11.00;100.00
23589;BME280;11972;48.078;11.876;2022-10-16T00:32:37;95491.63;;;10.95;100.00
23589;BME280;11972;48.078;11.876;2022-10-16T00:36:37;95503.84;;;10.96;100.00
23589;BME280;11972;48.078;11.876;2022-10-16T00:40:38;95495.66;;;10.90;100.00
23589;BME280;11972;48.078;11.876;2022-10-16T00:44:50;95496.63;;;10.89;100.00
23589;BME280;11972;48.078;11.876;2022-10-16T00:49:16;95497.53;;;10.82;100.00
23589;BME280;11972;48.078;11.876;2022-10-16T00:53:17;95494.56;;;10.70;100.00
23589;BME280;11972;48.078;11.876;2022-10-16T00:57:18;95491.75;;;10.72;100.00
23589;BME280;11972;48.078;11.876;2022-10-16T01:01:18;95492.19;;;10.75;100.00
23589;BME280;11972;48.078;11.876;2022-10-16T01:05:49;95494.63;;;10.77;100.00
23589;BME280;11972;48.078;11.876;2022-10-16T01:14:28;95494.63;;;10.77;100.00
23589;BME280;11972;48.078;11.876;2022-10-16T01:18:47;95490.16;;;10.77;100.00
23589;BME280;11972;48.078;11.876;2022-10-16T01:27:08;95495.91;;;10.81;100.00
23589;BME280;11972;48.078;11.876;2022-10-16T01:31:11;95501.19;;;10.81;100.00
23589;BME280;11972;48.078;11.876;2022-10-16T01:35:18;95509.94;;;10.81;100.00
23589;BME280;11972;48.078;11.876;2022-10-16T01:39:27;95509.84;;;10.89;100.00
23589;BME280;11972;48.078;11.876;2022-10-16T01:43:36;95510.56;;;10.98;100.00
23589;BME280;11972;48.078;11.876;2022-10-16T01:47:37;95514.03;;;10.99;100.00
23589;BME280;11972;48.078;11.876;2022-10-16T01:51:39;95514.03;;;10.99;100.00
23589;BME280;11972;48.078;11.876;2022-10-16T01:55:42;95513.94;;;10.92;100.00
23589;BME280;11972;48.078;11.876;2022-10-16T01:59:48;95502.91;;;10.88;100.00
23589;BME280;11972;48.078;11.876;2022-10-16T02:03:54;95513.69;;;10.87;100.00
23589;BME280;11972;48.078;11.876;2022-10-16T02:07:56;95518.31;;;10.85;100.00
23589;BME280;11972;48.078;11.876;2022-10-16T02:11:59;95513.41;;;10.82;100.00
23589;BME280;11972;48.078;11.876;2022-10-16T02:16:03;95515.63;;;10.78;100.00
23589;BME280;11972;48.078;11.876;2022-10-16T02:20:04;95512.50;;;10.75;100.00
23589;BME280;11972;48.078;11.876;2022-10-16T02:24:13;95510.03;;;10.73;100.00
23589;BME280;11972;48.078;11.876;2022-10-16T02:28:26;95510.03;;;10.73;100.00
23589;BME280;11972;48.078;11.876;2022-10-16T02:32:30;95507.13;;;10.68;100.00
23589;BME280;11972;48.078;11.876;2022-10-16T02:36:32;95514.13;;;10.61;100.00
23589;BME280;11972;48.078;11.876;2022-10-16T02:40:35;95510.59;;;10.54;100.00
23589;BME280;11972;48.078;11.876;2022-10-16T02:44:36;95509.69;;;10.47;100.00
23589;BME280;11972;48.078;11.876;2022-10-16T02:48:36;95521.63;;;10.42;100.00
23589;BME280;11972;48.078;11.876;2022-10-16T02:52:37;95518.69;;;10.37;100.00
23589;BME280;11972;48.078;11.876;2022-10-16T02:56:37;95516.41;;;10.34;100.00
23589;BME280;11972;48.078;11.876;2022-10-16T03:00:37;95516.78;;;10.31;100.00
23589;BME280;11972;48.078;11.876;2022-10-16T03:04:38;95513.84;;;10.26;100.00
23589;BME280;11972;48.078;11.876;2022-10-16T03:08:38;95515.81;;;10.24;100.00
23589;BME280;11972;48.078;11.876;2022-10-16T03:12:38;95521.78;;;10.26;100.00
23589;BME280;11972;48.078;11.876;2022-10-16T03:16:39;95523.59;;;10.26;100.00
23589;BME280;11972;48.078;11.876;2022-10-16T03:20:39;95521.47;;;10.21;100.00
23589;BME280;11972;48.078;11.876;2022-10-16T03:24:40;95518.63;;;10.23;100.00
23589;BME280;11972;48.078;11.876;2022-10-16T03:28:40;95509.25;;;10.20;100.00
23589;BME280;11972;48.078;11.876;2022-10-16T03:32:40;95522.63;;;10.18;100.00
23589;BME280;11972;48.078;11.876;2022-10-16T03:36:41;95518.19;;;10.19;100.00
23589;BME280;11972;48.078;11.876;2022-10-16T03:40:41;95527.72;;;10.20;100.00
23589;BME280;11972;48.078;11.876;2022-10-16T03:44:41;95530.38;;;10.20;100.00
23589;BME280;11972;48.078;11.876;2022-10-16T03:48:42;95532.03;;;10.21;100.00
23589;BME280;11972;48.078;11.876;2022-10-16T03:52:42;95534.63;;;10.29;100.00
23589;BME280;11972;48.078;11.876;2022-10-16T03:56:42;95540.44;;;10.39;100.00
23589;BME280;11972;48.078;11.876;2022-10-16T04:00:44;95533.72;;;10.52;100.00
23589;BME280;11972;48.078;11.876;2022-10-16T04:04:45;95546.38;;;10.56;100.00
23589;BME280;11972;48.078;11.876;2022-10-16T04:08:45;95552.13;;;10.60;100.00
23589;BME280;11972;48.078;11.876;2022-10-16T04:12:45;95548.13;;;10.64;100.00
23589;BME280;11972;48.078;11.876;2022-10-16T04:16:46;95542.94;;;10.71;100.00
23589;BME280;11972;48.078;11.876;2022-10-16T04:20:46;95541.56;;;10.75;100.00
23589;BME280;11972;48.078;11.876;2022-10-16T04:24:46;95542.47;;;10.82;100.00
23589;BME280;11972;48.078;11.876;2022-10-16T04:28:47;95537.28;;;10.88;100.00
23589;BME280;11972;48.078;11.876;2022-10-16T04:32:51;95540.63;;;10.97;100.00
23589;BME280;11972;48.078;11.876;2022-10-16T04:36:51;95532.44;;;11.07;100.00
23589;BME280;11972;48.078;11.876;2022-10-16T04:40:52;95535.78;;;11.15;100.00
23589;BME280;11972;48.078;11.876;2022-10-16T04:44:52;95555.63;;;11.26;100.00
23589;BME280;11972;48.078;11.876;2022-10-16T04:48:53;95548.78;;;11.32;100.00
23589;BME280;11972;48.078;11.876;2022-10-16T04:52:54;95541.94;;;11.37;100.00
23589;BME280;11972;48.078;11.876;2022-10-16T04:56:54;95538.91;;;11.40;100.00
23589;BME280;11972;48.078;11.876;2022-10-16T05:00:55;95531.00;;;11.40;100.00
23589;BME280;11972;48.078;11.876;2022-10-16T05:04:55;95530.34;;;11.38;100.00
23589;BME280;11972;48.078;11.876;2022-10-16T05:08:55;95526.25;;;11.36;100.00
23589;BME280;11972;48.078;11.876;2022-10-16T05:12:56;95529.97;;;11.41;100.00
23589;BME280;11972;48.078;11.876;2022-10-16T05:16:56;95518.63;;;11.48;100.00
23589;BME280;11972;48.078;11.876;2022-10-16T05:20:57;95520.75;;;11.52;100.00
23589;BME280;11972;48.078;11.876;2022-10-16T05:24:57;95530.56;;;11.58;100.00
23589;BME280;11972;48.078;11.876;2022-10-16T05:28:57;95521.03;;;11.64;100.00
23589;BME280;11972;48.078;11.876;2022-10-16T05:32:58;95519.28;;;11.71;100.00
23589;BME280;11972;48.078;11.876;2022-10-16T05:36:58;95529.75;;;11.79;100.00
23589;BME280;11972;48.078;11.876;2022-10-16T05:40:58;95530.00;;;11.84;100.00
23589;BME280;11972;48.078;11.876;2022-10-16T05:44:59;95533.91;;;11.88;100.00
23589;BME280;11972;48.078;11.876;2022-10-16T05:48:59;95543.13;;;11.92;100.00
23589;BME280;11972;48.078;11.876;2022-10-16T05:52:59;95552.16;;;11.98;100.00
23589;BME280;11972;48.078;11.876;2022-10-16T05:57:00;95552.84;;;12.07;100.00
23589;BME280;11972;48.078;11.876;2022-10-16T06:01:06;95559.38;;;12.11;100.00
23589;BME280;11972;48.078;11.876;2022-10-16T06:05:07;95571.00;;;12.10;100.00
23589;BME280;11972;48.078;11.876;2022-10-16T06:09:08;95576.66;;;12.07;100.00
23589;BME280;11972;48.078;11.876;2022-10-16T06:13:10;95588.88;;;12.08;100.00
23589;BME280;11972;48.078;11.876;2022-10-16T06:17:10;95592.59;;;12.13;100.00
23589;BME280;11972;48.078;11.876;2022-10-16T06:21:13;95590.66;;;12.22;100.00
23589;BME280;11972;48.078;11.876;2022-10-16T06:25:15;95595.16;;;12.28;100.00
23589;BME280;11972;48.078;11.876;2022-10-16T06:29:15;95602.16;;;12.36;100.00
23589;BME280;11972;48.078;11.876;2022-10-16T06:33:15;95612.19;;;12.40;100.00
23589;BME280;11972;48.078;11.876;2022-10-16T06:37:16;95614.47;;;12.44;100.00
23589;BME280;11972;48.078;11.876;2022-10-16T06:41:18;95603.91;;;12.50;100.00
23589;BME280;11972;48.078;11.876;2022-10-16T06:45:19;95595.66;;;12.66;100.00
23589;BME280;11972;48.078;11.876;2022-10-16T06:49:19;95602.72;;;12.87;100.00
23589;BME280;11972;48.078;11.876;2022-10-16T06:53:23;95605.88;;;12.98;100.00
23589;BME280;11972;48.078;11.876;2022-10-16T06:57:23;95619.34;;;13.03;100.00
23589;BME280;11972;48.078;11.876;2022-10-16T07:01:25;95629.19;;;13.09;100.00
23589;BME280;11972;48.078;11.876;2022-10-16T07:05:26;95631.25;;;13.13;100.00
23589;BME280;11972;48.078;11.876;2022-10-16T07:09:26;95633.75;;;13.22;100.00
23589;BME280;11972;48.078;11.876;2022-10-16T07:13:27;95638.78;;;13.38;100.00
23589;BME280;11972;48.078;11.876;2022-10-16T07:17:27;95639.69;;;13.58;100.00
23589;BME280;11972;48.078;11.876;2022-10-16T07:21:30;95652.00;;;13.79;100.00
23589;BME280;11972;48.078;11.876;2022-10-16T07:25:31;95653.25;;;13.90;100.00
23589;BME280;11972;48.078;11.876;2022-10-16T07:29:31;95661.03;;;13.92;100.00
23589;BME280;11972;48.078;11.876;2022-10-16T07:33:32;95662.28;;;13.96;100.00
23589;BME280;11972;48.078;11.876;2022-10-16T07:37:33;95666.38;;;14.05;100.00
23589;BME280;11972;48.078;11.876;2022-10-16T07:41:34;95670.31;;;14.22;100.00
23589;BME280;11972;48.078;11.876;2022-10-16T07:45:36;95670.94;;;14.44;100.00
23589;BME280;11972;48.078;11.876;2022-10-16T07:49:37;95675.09;;;14.67;100.00
23589;BME280;11972;48.078;11.876;2022-10-16T07:53:37;95675.91;;;14.80;100.00
23589;BME280;11972;48.078;11.876;2022-10-16T07:57:38;95687.38;;;14.94;100.00
23589;BME280;11972;48.078;11.876;2022-10-16T08:01:38;95689.81;;;15.09;100.00
23589;BME280;11972;48.078;11.876;2022-10-16T08:05:39;95686.94;;;15.24;100.00
23589;BME280;11972;48.078;11.876;2022-10-16T08:09:39;95697.16;;;15.40;100.00
23589;BME280;11972;48.078;11.876;2022-10-16T08:13:39;95696.50;;;15.58;100.00
23589;BME280;11972;48.078;11.876;2022-10-16T08:17:40;95700.34;;;15.75;100.00
23589;BME280;11972;48.078;11.876;2022-10-16T08:21:40;95702.34;;;15.93;100.00
23589;BME280;11972;48.078;11.876;2022-10-16T08:25:41;95710.47;;;16.11;100.00
23589;BME280;11972;48.078;11.876;2022-10-16T08:29:41;95711.19;;;16.32;100.00
23589;BME280;11972;48.078;11.876;2022-10-16T08:33:43;95707.34;;;16.59;100.00
23589;BME280;11972;48.078;11.876;2022-10-16T08:37:45;95713.31;;;16.86;100.00
23589;BME280;11972;48.078;11.876;2022-10-16T08:50:12;95707.88;;;17.50;100.00
23589;BME280;11972;48.078;11.876;2022-10-16T08:54:23;95718.69;;;17.73;100.00
23589;BME280;11972;48.078;11.876;2022-10-16T08:58:29;95713.53;;;17.97;100.00
23589;BME280;11972;48.078;11.876;2022-10-16T09:02:48;95713.22;;;18.23;100.00
23589;BME280;11972;48.078;11.876;2022-10-16T09:07:21;95723.63;;;18.43;100.00
23589;BME280;11972;48.078;11.876;2022-10-16T09:16:30;95722.75;;;18.79;100.00
23589;BME280;11972;48.078;11.876;2022-10-16T09:20:49;95723.28;;;19.00;100.00
23589;BME280;11972;48.078;11.876;2022-10-16T09:24:51;95716.53;;;19.21;100.00
23589;BME280;11972;48.078;11.876;2022-10-16T09:28:52;95715.66;;;19.39;100.00
23589;BME280;11972;48.078;11.876;2022-10-16T09:32:53;95710.75;;;19.47;100.00
23589;BME280;11972;48.078;11.876;2022-10-16T09:36:55;95717.63;;;19.67;100.00
23589;BME280;11972;48.078;11.876;2022-10-16T09:41:00;95720.06;;;19.92;100.00
23589;BME280;11972;48.078;11.876;2022-10-16T09:45:01;95708.47;;;20.15;100.00
23589;BME280;11972;48.078;11.876;2022-10-16T09:49:23;95714.47;;;20.33;100.00
23589;BME280;11972;48.078;11.876;2022-10-16T09:53:23;95708.94;;;20.52;100.00
23589;BME280;11972;48.078;11.876;2022-10-16T09:57:26;95713.69;;;20.62;100.00
23589;BME280;11972;48.078;11.876;2022-10-16T10:01:38;95714.69;;;20.72;100.00
23589;BME280;11972;48.078;11.876;2022-10-16T10:05:39;95712.09;;;20.77;100.00
23589;BME280;11972;48.078;11.876;2022-10-16T10:09:44;95706.09;;;20.87;100.00
23589;BME280;11972;48.078;11.876;2022-10-16T10:13:44;95721.63;;;21.02;100.00
23589;BME280;11972;48.078;11.876;2022-10-16T10:17:53;95713.75;;;21.12;100.00
23589;BME280;11972;48.078;11.876;2022-10-16T10:21:54;95709.69;;;21.26;100.00
23589;BME280;11972;48.078;11.876;2022-10-16T10:34:38;95705.31;;;21.76;100.00
23589;BME280;11972;48.078;11.876;2022-10-16T10:38:55;95698.28;;;21.92;100.00
23589;BME280;11972;48.078;11.876;2022-10-16T10:47:35;95699.97;;;22.15;100.00
23589;BME280;11972;48.078;11.876;2022-10-16T10:52:47;95698.13;;;22.20;100.00
23589;BME280;11972;48.078;11.876;2022-10-16T11:05:28;95701.72;;;22.53;100.00
23589;BME280;11972;48.078;11.876;2022-10-16T11:09:43;95698.59;;;22.61;100.00
23589;BME280;11972;48.078;11.876;2022-10-16T11:13:58;95704.09;;;22.71;100.00
23589;BME280;11972;48.078;11.876;2022-10-16T11:18:06;95703.63;;;22.79;100.00
23589;BME280;11972;48.078;11.876;2022-10-16T11:23:11;95688.63;;;22.89;100.00
23589;BME280;11972;48.078;11.876;2022-10-16T11:26:42;95705.47;;;23.01;100.00
23589;BME280;11972;48.078;11.876;2022-10-16T11:30:51;95696.94;;;23.09;100.00
23589;BME280;11972;48.078;11.876;2022-10-16T11:34:59;95692.13;;;23.16;100.00
23589;BME280;11972;48.078;11.876;2022-10-16T11:39:20;95698.34;;;23.17;100.00
23589;BME280;11972;48.078;11.876;2022-10-16T11:43:43;95691.53;;;23.09;100.00
23589;BME280;11972;48.078;11.876;2022-10-16T11:52:32;95685.44;;;23.24;100.00
23589;BME280;11972;48.078;11.876;2022-10-16T11:56:38;95684.13;;;23.26;100.00
23589;BME280;11972;48.078;11.876;2022-10-16T12:00:47;95693.59;;;23.29;100.00
23589;BME280;11972;48.078;11.876;2022-10-16T12:09:24;95677.78;;;23.43;100.00
23589;BME280;11972;48.078;11.876;2022-10-16T12:13:36;95675.06;;;23.38;100.00
23589;BME280;11972;48.078;11.876;2022-10-16T12:17:38;95675.06;;;23.38;100.00
23589;BME280;11972;48.078;11.876;2022-10-16T12:21:38;95672.88;;;23.40;100.00
23589;BME280;11972;48.078;11.876;2022-10-16T12:25:40;95680.47;;;23.43;100.00
23589;BME280;11972;48.078;11.876;2022-10-16T12:29:46;95678.13;;;23.57;100.00
23589;BME280;11972;48.078;11.876;2022-10-16T12:34:01;95680.03;;;23.61;100.00
23589;BME280;11972;48.078;11.876;2022-10-16T12:38:07;95678.69;;;23.59;100.00
23589;BME280;11972;48.078;11.876;2022-10-16T12:50:37;95680.56;;;23.58;100.00
23589;BME280;11972;48.078;11.876;2022-10-16T12:54:38;95680.03;;;23.61;100.00
23589;BME280;11972;48.078;11.876;2022-10-16T13:07:56;95676.22;;;23.52;100.00
23589;BME280;11972;48.078;11.876;2022-10-16T13:28:39;95680.38;;;23.33;100.00
23589;BME280;11972;48.078;11.876;2022-10-16T13:32:50;95685.06;;;23.10;100.00
23589;BME280;11972;48.078;11.876;2022-10-16T13:36:53;95693.59;;;22.97;100.00
23589;BME280;11972;48.078;11.876;2022-10-16T13:41:14;95692.59;;;23.08;100.00
23589;BME280;11972;48.078;11.876;2022-10-16T13:45:20;95691.59;;;23.19;100.00
23589;BME280;11972;48.078;11.876;2022-10-16T13:49:21;95692.25;;;23.32;100.00
23589;BME280;11972;48.078;11.876;2022-10-16T13:53:21;95694.28;;;23.57;100.00
23589;BME280;11972;48.078;11.876;2022-10-16T13:57:23;95702.31;;;23.79;100.00
23589;BME280;11972;48.078;11.876;2022-10-16T14:01:30;95697.78;;;23.94;100.00
23589;BME280;11972;48.078;11.876;2022-10-16T14:05:32;95692.72;;;24.03;100.00
23589;BME280;11972;48.078;11.876;2022-10-16T14:09:32;95697.56;;;24.06;100.00
23589;BME280;11972;48.078;11.876;2022-10-16T14:13:37;95693.06;;;24.27;100.00
23589;BME280;11972;48.078;11.876;2022-10-16T14:17:43;95704.53;;;24.49;100.00
23589;BME280;11972;48.078;11.876;2022-10-16T14:21:45;95704.53;;;24.60;100.00
23589;BME280;11972;48.078;11.876;2022-10-16T14:25:46;95702.94;;;24.64;100.00
23589;BME280;11972;48.078;11.876;2022-10-16T14:29:47;95704.28;;;24.66;100.00
23589;BME280;11972;48.078;11.876;2022-10-16T14:33:47;95704.06;;;24.73;100.00
23589;BME280;11972;48.078;11.876;2022-10-16T14:37:51;95701.31;;;24.58;100.00
23589;BME280;11972;48.078;11.876;2022-10-16T14:41:55;95701.47;;;24.36;100.00
23589;BME280;11972;48.078;11.876;2022-10-16T14:45:57;95699.66;;;23.94;100.00
23589;BME280;11972;48.078;11.876;2022-10-16T14:49:57;95703.66;;;23.44;100.00
23589;BME280;11972;48.078;11.876;2022-10-16T14:53:59;95708.25;;;23.11;100.00
23589;BME280;11972;48.078;11.876;2022-10-16T14:58:00;95713.38;;;22.86;100.00
23589;BME280;11972;48.078;11.876;2022-10-16T15:02:39;95718.28;;;22.67;100.00
23589;BME280;11972;48.078;11.876;2022-10-16T15:06:33;95721.34;;;22.48;100.00
23589;BME280;11972;48.078;11.876;2022-10-16T15:10:39;95712.72;;;22.24;100.00
23589;BME280;11972;48.078;11.876;2022-10-16T15:14:39;95715.59;;;22.01;100.00
23589;BME280;11972;48.078;11.876;2022-10-16T15:18:40;95711.84;;;21.80;100.00
23589;BME280;11972;48.078;11.876;2022-10-16T15:22:40;95719.13;;;21.63;100.00
23589;BME280;11972;48.078;11.876;2022-10-16T15:26:40;95715.06;;;21.43;100.00
23589;BME280;11972;48.078;11.876;2022-10-16T15:30:41;95727.34;;;21.22;100.00
23589;BME280;11972;48.078;11.876;2022-10-16T15:34:42;95721.56;;;20.97;100.00
23589;BME280;11972;48.078;11.876;2022-10-16T15:38:42;95724.59;;;20.72;100.00
23589;BME280;11972;48.078;11.876;2022-10-16T15:42:43;95735.91;;;20.45;100.00
23589;BME280;11972;48.078;11.876;2022-10-16T15:46:44;95733.53;;;20.20;100.00
23589;BME280;11972;48.078;11.876;2022-10-16T15:50:44;95737.44;;;19.89;100.00
23589;BME280;11972;48.078;11.876;2022-10-16T15:54:44;95740.22;;;19.59;100.00
23589;BME280;11972;48.078;11.876;2022-10-16T15:58:45;95741.72;;;19.31;100.00
23589;BME280;11972;48.078;11.876;2022-10-16T16:02:50;95742.13;;;19.05;100.00
23589;BME280;11972;48.078;11.876;2022-10-16T16:06:51;95752.78;;;18.81;100.00
23589;BME280;11972;48.078;11.876;2022-10-16T16:10:58;95755.22;;;18.53;100.00
23589;BME280;11972;48.078;11.876;2022-10-16T16:14:59;95757.63;;;18.24;100.00
23589;BME280;11972;48.078;11.876;2022-10-16T16:18:59;95751.56;;;17.99;100.00
23589;BME280;11972;48.078;11.876;2022-10-16T16:23:00;95760.22;;;17.76;100.00
23589;BME280;11972;48.078;11.876;2022-10-16T16:27:00;95766.19;;;17.53;100.00
23589;BME280;11972;48.078;11.876;2022-10-16T16:31:00;95769.22;;;17.31;100.00
23589;BME280;11972;48.078;11.876;2022-10-16T16:35:02;95771.44;;;17.09;100.00
23589;BME280;11972;48.078;11.876;2022-10-16T16:39:02;95780.41;;;16.90;100.00
23589;BME280;11972;48.078;11.876;2022-10-16T16:43:03;95793.81;;;16.70;100.00
23589;BME280;11972;48.078;11.876;2022-10-16T16:47:04;95784.91;;;16.51;100.00
23589;BME280;11972;48.078;11.876;2022-10-16T16:51:08;95799.16;;;16.32;100.00
23589;BME280;11972;48.078;11.876;2022-10-16T16:55:08;95796.94;;;16.16;100.00
23589;BME280;11972;48.078;11.876;2022-10-16T16:59:13;95801.50;;;16.02;100.00
23589;BME280;11972;48.078;11.876;2022-10-16T17:03:14;95817.09;;;15.92;100.00
23589;BME280;11972;48.078;11.876;2022-10-16T17:07:15;95822.44;;;15.78;100.00
23589;BME280;11972;48.078;11.876;2022-10-16T17:11:26;95829.03;;;15.69;100.00
23589;BME280;11972;48.078;11.876;2022-10-16T17:15:26;95829.41;;;15.59;100.00
23589;BME280;11972;48.078;11.876;2022-10-16T17:19:27;95842.53;;;15.48;100.00
23589;BME280;11972;48.078;11.876;2022-10-16T17:23:27;95845.78;;;15.36;100.00
23589;BME280;11972;48.078;11.876;2022-10-16T17:27:27;95843.53;;;15.27;100.00
23589;BME280;11972;48.078;11.876;2022-10-16T17:31:33;95856.41;;;15.17;100.00
23589;BME280;11972;48.078;11.876;2022-10-16T17:39:38;95871.53;;;15.03;100.00
23589;BME280;11972;48.078;11.876;2022-10-16T17:43:38;95867.44;;;14.94;100.00
23589;BME280;11972;48.078;11.876;2022-10-16T17:47:39;95870.47;;;14.91;100.00
23589;BME280;11972;48.078;11.876;2022-10-16T17:51:42;95875.97;;;14.82;100.00
23589;BME280;11972;48.078;11.876;2022-10-16T17:55:43;95890.69;;;14.78;100.00
23589;BME280;11972;48.078;11.876;2022-10-16T17:59:43;95888.81;;;14.72;100.00
23589;BME280;11972;48.078;11.876;2022-10-16T18:03:48;95889.63;;;14.66;100.00
23589;BME280;11972;48.078;11.876;2022-10-16T18:07:48;95893.69;;;14.62;100.00
23589;BME280;11972;48.078;11.876;2022-10-16T18:11:48;95895.88;;;14.52;100.00
23589;BME280;11972;48.078;11.876;2022-10-16T18:16:06;95901.16;;;14.45;100.00
23589;BME280;11972;48.078;11.876;2022-10-16T18:20:09;95900.09;;;14.39;100.00
23589;BME280;11972;48.078;11.876;2022-10-16T18:24:10;95904.38;;;14.34;100.00
23589;BME280;11972;48.078;11.876;2022-10-16T18:28:10;95900.84;;;14.27;100.00
23589;BME280;11972;48.078;11.876;2022-10-16T18:32:11;95909.59;;;14.21;100.00
23589;BME280;11972;48.078;11.876;2022-10-16T18:36:16;95912.84;;;14.16;100.00
23589;BME280;11972;48.078;11.876;2022-10-16T18:40:16;95914.69;;;14.15;100.00
23589;BME280;11972;48.078;11.876;2022-10-16T18:44:17;95914.50;;;14.17;100.00
23589;BME280;11972;48.078;11.876;2022-10-16T18:48:17;95923.47;;;14.16;100.00
23589;BME280;11972;48.078;11.876;2022-10-16T18:52:17;95918.53;;;14.13;100.00
23589;BME280;11972;48.078;11.876;2022-10-16T18:56:19;95917.69;;;14.06;100.00
23589;BME280;11972;48.078;11.876;2022-10-16T19:00:20;95932.13;;;13.97;100.00
23589;BME280;11972;48.078;11.876;2022-10-16T19:04:20;95926.50;;;13.85;100.00
23589;BME280;11972;48.078;11.876;2022-10-16T19:08:22;95929.50;;;13.75;100.00
23589;BME280;11972;48.078;11.876;2022-10-16T19:12:23;95930.66;;;13.66;100.00
23589;BME280;11972;48.078;11.876;2022-10-16T19:16:26;95936.28;;;13.56;100.00
23589;BME280;11972;48.078;11.876;2022-10-16T19:20:27;95944.56;;;13.47;100.00
23589;BME280;11972;48.078;11.876;2022-10-16T19:24:28;95955.09;;;13.40;100.00
23589;BME280;11972;48.078;11.876;2022-10-16T19:28:29;95944.81;;;13.30;100.00
23589;BME280;11972;48.078;11.876;2022-10-16T19:32:31;95945.56;;;13.24;100.00
23589;BME280;11972;48.078;11.876;2022-10-16T19:36:33;95954.06;;;13.20;100.00
23589;BME280;11972;48.078;11.876;2022-10-16T19:40:34;95963.75;;;13.12;100.00
23589;BME280;11972;48.078;11.876;2022-10-16T19:44:34;95967.16;;;13.06;100.00
23589;BME280;11972;48.078;11.876;2022-10-16T19:48:35;95971.41;;;13.01;100.00
23589;BME280;11972;48.078;11.876;2022-10-16T19:52:36;95972.13;;;12.95;100.00
23589;BME280;11972;48.078;11.876;2022-10-16T19:56:37;95975.53;;;12.88;100.00
23589;BME280;11972;48.078;11.876;2022-10-16T20:00:41;95985.50;;;12.86;100.00
23589;BME280;11972;48.078;11.876;2022-10-16T20:04:42;95980.47;;;12.77;100.00
23589;BME280;11972;48.078;11.876;2022-10-16T20:08:43;95985.69;;;12.70;100.00
23589;BME280;11972;48.078;11.876;2022-10-16T20:12:44;95988.44;;;12.62;100.00
23589;BME280;11972;48.078;11.876;2022-10-16T20:16:45;95990.16;;;12.55;100.00
23589;BME280;11972;48.078;11.876;2022-10-16T20:20:47;95997.22;;;12.48;100.00
23589;BME280;11972;48.078;11.876;2022-10-16T20:24:50;96001.59;;;12.40;100.00
23589;BME280;11972;48.078;11.876;2022-10-16T20:28:50;96001.31;;;12.35;100.00
23589;BME280;11972;48.078;11.876;2022-10-16T20:32:51;96005.97;;;12.33;100.00
23589;BME280;11972;48.078;11.876;2022-10-16T20:36:53;96005.50;;;12.30;100.00
23589;BME280;11972;48.078;11.876;2022-10-16T20:40:53;96012.72;;;12.21;100.00
23589;BME280;11972;48.078;11.876;2022-10-16T20:44:54;96018.53;;;12.16;100.00
23589;BME280;11972;48.078;11.876;2022-10-16T20:48:56;96013.78;;;12.12;100.00
23589;BME280;11972;48.078;11.876;2022-10-16T20:52:57;96025.13;;;12.06;100.00
23589;BME280;11972;48.078;11.876;2022-10-16T20:56:58;96025.81;;;12.00;100.00
23589;BME280;11972;48.078;11.876;2022-10-16T21:01:06;96020.88;;;11.97;100.00
23589;BME280;11972;48.078;11.876;2022-10-16T21:05:07;96016.66;;;11.87;100.00
23589;BME280;11972;48.078;11.876;2022-10-16T21:09:07;96024.81;;;11.78;100.00
23589;BME280;11972;48.078;11.876;2022-10-16T21:13:08;96022.84;;;11.72;100.00
23589;BME280;11972;48.078;11.876;2022-10-16T21:17:08;96027.22;;;11.64;100.00
23589;BME280;11972;48.078;11.876;2022-10-16T21:21:09;96023.44;;;11.59;100.00
23589;BME280;11972;48.078;11.876;2022-10-16T21:25:11;96026.44;;;11.56;100.00
23589;BME280;11972;48.078;11.876;2022-10-16T21:29:11;96027.78;;;11.52;100.00
23589;BME280;11972;48.078;11.876;2022-10-16T21:33:12;96027.34;;;11.48;100.00
23589;BME280;11972;48.078;11.876;2022-10-16T21:37:12;96028.50;;;11.46;100.00
23589;BME280;11972;48.078;11.876;2022-10-16T21:41:24;96030.84;;;11.40;100.00
23589;BME280;11972;48.078;11.876;2022-10-16T21:45:24;96035.53;;;11.30;100.00
23589;BME280;11972;48.078;11.876;2022-10-16T21:49:25;96037.22;;;11.23;100.00
23589;BME280;11972;48.078;11.876;2022-10-16T21:53:25;96033.28;;;11.19;100.00
23589;BME280;11972;48.078;11.876;2022-10-16T21:57:25;96041.38;;;11.17;100.00
23589;BME280;11972;48.078;11.876;2022-10-16T22:01:27;96036.81;;;11.11;100.00
23589;BME280;11972;48.078;11.876;2022-10-16T22:05:27;96036.19;;;11.01;100.00
23589;BME280;11972;48.078;11.876;2022-10-16T22:09:28;96039.66;;;10.93;100.00
23589;BME280;11972;48.078;11.876;2022-10-16T22:13:28;96035.09;;;10.87;100.00
23589;BME280;11972;48.078;11.876;2022-10-16T22:17:28;96039.06;;;10.83;100.00
23589;BME280;11972;48.078;11.876;2022-10-16T22:21:29;96036.13;;;10.78;100.00
23589;BME280;11972;48.078;11.876;2022-10-16T22:25:32;96036.47;;;10.75;100.00